Flight Track Log - Related Links

Times and Time Zones

All times are in EDT time to prevent confusion due to time zone crossing. See the AAL1862 flight status page for this flight to view local times or setup timezone preferences in your user account.

Time Position Orientation Groundspeed Altitude Reporting Facility
EDT Latitude Longitude Course Direction KTS km/h feet Rate Location/Type
Tue 08:03:39 32.9133 -97.0297 North 162 299 1.500  Level FAA TRACON SMA TRACON (SMA)
Tue 08:03:59 32.9303 -97.0294 360° North 158 293 2.300 1.946 Climbing FAA TRACON SMA TRACON (SMA)
Tue 08:04:16 32.9450 -97.0294 360° North 168 311 2.700 1.297 Climbing FAA TRACON SMA TRACON (SMA)
Tue 08:04:36 32.9619 -97.0294 North 188 348 3.100 1.650 Climbing FAA TRACON SMA TRACON (SMA)
Tue 08:04:56 32.9803 -97.0286 North 209 388 3.800 2.400 Climbing FAA TRACON SMA TRACON (SMA)
Tue 08:05:16 33.0033 -97.0272 North 216 401 4.700 2.550 Climbing FAA TRACON SMA TRACON (SMA)
Tue 08:05:36 33.0222 -97.0267 North 218 404 5.500 2.100 Climbing FAA TRACON SMA TRACON (SMA)
Tue 08:05:56 33.0411 -97.0258 North 220 407 6.100 1.846 Climbing FAA TRACON SMA TRACON (SMA)
Tue 08:06:15 33.0606 -97.0250 North 226 418 6.700 2.308 Climbing FAA TRACON SMA TRACON (SMA)
Tue 08:06:35 33.0850 -97.0228 26° Northeast 230 426 7.600 2.195 Climbing FAA TRACON SMA TRACON (SMA)
Tue 08:06:56 33.1025 -97.0125 25° Northeast 229 425 8.200 1.902 Climbing FAA TRACON SMA TRACON (SMA)
Tue 08:07:16 33.1203 -97.0025 23° Northeast 230 426 8.900 2.400 Climbing FAA TRACON SMA TRACON (SMA)
Tue 08:07:36 33.1433 -96.9908 24° Northeast 233 431 9.800 1.650 Climbing FAA TRACON SMA TRACON (SMA)
Tue 08:07:56 33.1622 -96.9808 24° Northeast 239 443 10.000 300 Climbing FAA TRACON SMA TRACON (SMA)
Tue 08:08:16 33.1822 -96.9700 24° Northeast 250 463 10.000  Level FAA TRACON SMA TRACON (SMA)
Tue 08:08:36 33.2053 -96.9575 28° Northeast 241 446 10.000  Level FAA TRACON SMA TRACON (SMA)
Tue 08:08:56 33.2231 -96.9464 17° North 234 433 10.000  Level FAA TRACON SMA TRACON (SMA)
Tue 08:09:16 33.2464 -96.9378 357° North 232 430 10.000  Level FAA TRACON SMA TRACON (SMA)
Tue 08:09:36 33.2667 -96.9392 338° Northwest 236 438 10.000  Level FAA TRACON SMA TRACON (SMA)
Tue 08:09:56 33.2853 -96.9483 315° West 237 439 10.000  Level FAA TRACON SMA TRACON (SMA)
Tue 08:10:16 33.3031 -96.9694 289° West 243 451 10.000  Level FAA TRACON SMA TRACON (SMA)
Tue 08:10:36 33.3103 -96.9939 273° West 251 465 10.000  Level FAA TRACON SMA TRACON (SMA)
Tue 08:10:55 33.3114 -97.0194 265° West 252 467 10.000  Level FAA TRACON SMA TRACON (SMA)
Tue 08:11:16 33.3097 -97.0444 246° West 251 465 10.000  Level FAA TRACON SMA TRACON (SMA)
Tue 08:11:36 33.2992 -97.0733 228° Southwest 255 472 10.000  Level FAA TRACON SMA TRACON (SMA)
Tue 08:11:56 33.2847 -97.0925 223° Southwest 256 475 10.000  Level FAA TRACON SMA TRACON (SMA)
Tue 08:12:16 33.2647 -97.1150 222° Southwest 255 472 10.000  Level FAA TRACON SMA TRACON (SMA)
Tue 08:12:36 33.2486 -97.1325 224° Southwest 255 472 10.000  Level FAA TRACON SMA TRACON (SMA)
Tue 08:12:56 33.2328 -97.1508 223° Southwest 255 472 10.000  Level FAA TRACON SMA TRACON (SMA)
Tue 08:13:16 33.2133 -97.1722 202° Southwest 253 468 10.000  Level FAA TRACON SMA TRACON (SMA)
Tue 08:13:36 33.1942 -97.1817 198° South 247 457 10.000  Level FAA TRACON SMA TRACON (SMA)
Tue 08:13:57 33.1750 -97.1889 198° South 240 444 10.000  Level FAA TRACON SMA TRACON (SMA)
Tue 08:14:16 33.1503 -97.1983 197° South 240 444 10.000  Level FAA TRACON SMA TRACON (SMA)
Tue 08:14:35 33.1303 -97.2058 190° South 240 444 10.000  Level FAA TRACON SMA TRACON (SMA)
Tue 08:14:56 33.1106 -97.2100 189° South 239 443 10.000  Level FAA TRACON SMA TRACON (SMA)
Tue 08:15:16 33.0847 -97.2147 188° South 239 443 10.000  Level FAA TRACON SMA TRACON (SMA)
Tue 08:15:36 33.0639 -97.2181 179° South 241 446 10.000  Level FAA TRACON SMA TRACON (SMA)
Tue 08:15:57 33.0433 -97.2178 179° South 240 444 10.000  Level FAA TRACON SMA TRACON (SMA)
Tue 08:16:19 33.0181 -97.2172 179° South 239 443 10.000  Level FAA TRACON SMA TRACON (SMA)
Tue 08:16:39 32.9919 -97.2167 178° South 240 444 10.000  Level FAA TRACON SMA TRACON (SMA)
Tue 08:16:57 32.9708 -97.2158 177° South 243 451 10.000 -474 Level FAA TRACON SMA TRACON (SMA)
Tue 08:17:17 32.9500 -97.2147 175° South 244 452 9.700 -750 Descending FAA TRACON SMA TRACON (SMA)
Tue 08:17:37 32.9297 -97.2128 177° South 241 446 9.500 -615 Descending FAA TRACON SMA TRACON (SMA)
Tue 08:17:56 32.9100 -97.2114 177° South 233 431 9.300 -769 Descending FAA TRACON SMA TRACON (SMA)
Tue 08:18:16 32.8864 -97.2097 176° South 221 409 9.000 -1.024 Descending FAA TRACON SMA TRACON (SMA)
Tue 08:18:37 32.8681 -97.2081 176° South 216 401 8.600 -1.171 Descending FAA TRACON SMA TRACON (SMA)
Tue 08:18:57 32.8453 -97.2061 177° South 212 393 8.200 -1.231 Descending FAA TRACON SMA TRACON (SMA)
Tue 08:19:16 32.8275 -97.2050 177° South 208 385 7.800 -1.077 Descending FAA TRACON SMA TRACON (SMA)
Tue 08:19:36 32.8097 -97.2039 176° South 207 383 7.500 -1.171 Descending FAA TRACON SMA TRACON (SMA)
Tue 08:19:57 32.7878 -97.2022 176° South 204 378 7.000 -1.171 Descending FAA TRACON SMA TRACON (SMA)
Tue 08:20:17 32.7703 -97.2008 176° South 203 377 6.700 -1.050 Descending FAA TRACON SMA TRACON (SMA)
Tue 08:20:37 32.7533 -97.1994 166° South 202 373 6.300 -1.500 Descending FAA TRACON SMA TRACON (SMA)
Tue 08:20:57 32.7322 -97.1933 128° Southeast 204 378 5.700 -1.395 Descending FAA TRACON SMA TRACON (SMA)
Tue 08:21:20 32.7200 -97.1744 107° East 199 369 5.300 -1.000 Descending FAA TRACON SMA TRACON (SMA)
Tue 08:21:39 32.7156 -97.1572 85° East 187 346 5.000 -1.167 Descending FAA TRACON SMA TRACON (SMA)
Tue 08:21:56 32.7167 -97.1406 84° East 174 322 4.600 -1.622 Descending FAA TRACON SMA TRACON (SMA)
Tue 08:22:16 32.7183 -97.1225 85° East 173 320 4.000 -1.650 Descending FAA TRACON SMA TRACON (SMA)
Tue 08:22:36 32.7197 -97.1042 66° East 179 332 3.500 -1.200 Descending FAA TRACON SMA TRACON (SMA)
Tue 08:22:56 32.7272 -97.0842 40° Northeast 182 336 3.200 -600 Descending FAA TRACON SMA TRACON (SMA)
Tue 08:23:16 32.7381 -97.0733 34° Northeast 167 309 3.100 -450 Descending FAA TRACON SMA TRACON (SMA)
Tue 08:23:36 32.7492 -97.0644 18° North 159 295 2.900 -585 Descending FAA TRACON SMA TRACON (SMA)
Tue 08:23:57 32.7656 -97.0581 North 160 296 2.700 -585 Descending FAA TRACON SMA TRACON (SMA)
Tue 08:24:17 32.7781 -97.0561 North 149 275 2.500 -750 Descending FAA TRACON SMA TRACON (SMA)
Tue 08:24:37 32.7897 -97.0550 359° North 139 257 2.200 -750 Descending FAA TRACON SMA TRACON (SMA)
Tue 08:24:57 32.8031 -97.0553 North 128 237 2.000 -600 Descending FAA TRACON SMA TRACON (SMA)
Tue 08:25:17 32.8139 -97.0550 360° North 126 233 1.800 -600 Descending FAA TRACON SMA TRACON (SMA)
Tue 08:25:37 32.8250 -97.0550 North 127 235 1.600 -769 Descending FAA TRACON SMA TRACON (SMA)
Tue 08:25:56 32.8383 -97.0547 360° North 125 232 1.300 -615 Descending FAA TRACON SMA TRACON (SMA)
Tue 08:26:16 32.8492 -97.0547 360° North 125 232 1.200 -450 Descending FAA TRACON SMA TRACON (SMA)
Tue 08:26:36 32.8603 -97.0547 359° North 129 238 1.000 -750 Descending FAA TRACON SMA TRACON (SMA)
Tue 08:26:56 32.8750 -97.0550 22° Northeast 135 249 700 Descending FAA TRACON SMA TRACON (SMA)
Tue 08:34:00 33.0340 -97.1155 147° Southeast  Level FlightAware Approximate
Tue 08:35:00 33.1236 -97.0448 177° South  Level FlightAware Approximate
Tue 08:36:00 33.2133 -96.9739 189° South  Level FlightAware Approximate
Tue 08:37:00 33.3029 -96.9029 196° South  Level FlightAware Approximate
Tue 08:38:00 33.3925 -96.8317 200° South  Level FlightAware Approximate
Tue 08:39:00 33.4926 -96.7885 200° South  Level FlightAware Approximate
Tue 08:40:00 33.5807 -96.7145 202° Southwest  Level FlightAware Approximate
Tue 08:41:00 33.6688 -96.6405 204° Southwest  Level FlightAware Approximate
Tue 08:42:00 33.7568 -96.5663 205° Southwest  Level FlightAware Approximate
Tue 08:43:00 33.8448 -96.4919 206° Southwest  Level FlightAware Approximate
Tue 08:44:00 33.9327 -96.4174 207° Southwest  Level FlightAware Approximate
Tue 08:45:00 34.0206 -96.3427 208° Southwest  Level FlightAware Approximate
Tue 08:46:00 34.1084 -96.2678 208° Southwest  Level FlightAware Approximate
Tue 08:47:00 34.1962 -96.1928 209° Southwest  Level FlightAware Approximate
Tue 08:48:00 34.2950 -96.2235 206° Southwest  Level FlightAware Approximate
Tue 08:49:00 34.3812 -96.1458 207° Southwest  Level FlightAware Approximate
Tue 08:50:00 34.4674 -96.0678 208° Southwest  Level FlightAware Approximate
Tue 08:51:00 34.5535 -95.9897 208° Southwest  Level FlightAware Approximate
Tue 08:52:00 34.6396 -95.9115 209° Southwest  Level FlightAware Approximate
Tue 08:53:00 34.7256 -95.8331 209° Southwest  Level FlightAware Approximate
Tue 08:54:00 34.8116 -95.7545 210° Southwest  Level FlightAware Approximate
Tue 08:55:00 34.9038 -95.7119 209° Southwest  Level FlightAware Approximate
Tue 08:56:00 34.9936 -95.6398 210° Southwest  Level FlightAware Approximate
Tue 08:57:00 35.0777 -95.5581 210° Southwest  Level FlightAware Approximate
Tue 08:58:00 35.1604 -95.4740 210° Southwest  Level FlightAware Approximate
Tue 08:59:00 35.2444 -95.3920 211° Southwest  Level FlightAware Approximate
Tue 09:00:00 35.3328 -95.3173 211° Southwest  Level FlightAware Approximate
Tue 09:01:00 35.3681 -95.2817 211° Southwest  Level FlightAware Approximate
Tue 09:02:00 35.4033 -95.2461 211° Southwest  Level FlightAware Approximate
Tue 09:03:00 35.4340 -95.2151 211° Southwest  Level FlightAware Approximate
Tue 09:04:00 35.4647 -95.1840 212° Southwest  Level FlightAware Approximate
Tue 09:05:00 35.4954 -95.1529 212° Southwest  Level FlightAware Approximate
Tue 09:06:00 35.5261 -95.1218 212° Southwest  Level FlightAware Approximate
Tue 09:07:00 35.5568 -95.0906 212° Southwest  Level FlightAware Approximate
Tue 09:08:00 35.5874 -95.0595 212° Southwest  Level FlightAware Approximate
Tue 09:09:00 35.6181 -95.0283 212° Southwest  Level FlightAware Approximate
Tue 09:10:00 35.6504 -94.9996 212° Southwest  Level FlightAware Approximate
Tue 09:11:00 35.6810 -94.9684 212° Southwest  Level FlightAware Approximate
Tue 09:12:00 35.7116 -94.9371 212° Southwest  Level FlightAware Approximate
Tue 09:13:00 35.7422 -94.9058 213° Southwest  Level FlightAware Approximate
Tue 09:14:00 35.7728 -94.8745 213° Southwest  Level FlightAware Approximate
Tue 09:15:00 35.8034 -94.8431 213° Southwest  Level FlightAware Approximate
Tue 09:16:00 35.8340 -94.8117 213° Southwest  Level FlightAware Approximate
Tue 09:17:00 35.8646 -94.7803 213° Southwest  Level FlightAware Approximate
Tue 09:18:00 35.8952 -94.7489 213° Southwest  Level FlightAware Approximate
Tue 09:19:00 35.9257 -94.7174 213° Southwest  Level FlightAware Approximate
Tue 09:20:00 35.9542 -94.6830 213° Southwest  Level FlightAware Approximate
Tue 09:21:00 35.9826 -94.6487 213° Southwest  Level FlightAware Approximate
Tue 09:22:00 36.0110 -94.6142 214° Southwest  Level FlightAware Approximate
Tue 09:23:00 36.0394 -94.5798 214° Southwest  Level FlightAware Approximate
Tue 09:24:00 36.0678 -94.5453 214° Southwest  Level FlightAware Approximate
Tue 09:25:00 36.0962 -94.5108 214° Southwest  Level FlightAware Approximate
Tue 09:26:00 36.1246 -94.4763 214° Southwest  Level FlightAware Approximate
Tue 09:27:00 36.1530 -94.4418 214° Southwest  Level FlightAware Approximate
Tue 09:28:00 36.1813 -94.4072 214° Southwest  Level FlightAware Approximate
Tue 09:29:00 36.2097 -94.3726 214° Southwest  Level FlightAware Approximate
Tue 09:30:00 36.2380 -94.3380 215° Southwest  Level FlightAware Approximate
Tue 09:31:00 36.2663 -94.3034 215° Southwest  Level FlightAware Approximate
Tue 09:32:00 36.2947 -94.2687 215° Southwest  Level FlightAware Approximate
Tue 09:33:00 36.3230 -94.2340 215° Southwest  Level FlightAware Approximate
Tue 09:34:00 36.3513 -94.1993 215° Southwest  Level FlightAware Approximate
Tue 09:35:00 36.3796 -94.1645 215° Southwest  Level FlightAware Approximate
Tue 09:36:00 36.4078 -94.1298 215° Southwest  Level FlightAware Approximate
Tue 09:37:00 36.4361 -94.0950 215° Southwest  Level FlightAware Approximate
Tue 09:38:00 36.4644 -94.0602 215° Southwest  Level FlightAware Approximate
Tue 09:39:00 36.4926 -94.0253 216° Southwest  Level FlightAware Approximate
Tue 09:40:00 36.5209 -93.9904 216° Southwest  Level FlightAware Approximate
Tue 09:41:00 36.5491 -93.9556 216° Southwest  Level FlightAware Approximate
Tue 09:42:00 36.5773 -93.9206 216° Southwest  Level FlightAware Approximate
Tue 09:43:00 36.6052 -93.8853 216° Southwest  Level FlightAware Approximate
Tue 09:44:00 36.6304 -93.8469 216° Southwest  Level FlightAware Approximate
Tue 09:45:00 36.6556 -93.8085 216° Southwest  Level FlightAware Approximate
Tue 09:46:00 36.6808 -93.7701 216° Southwest  Level FlightAware Approximate
Tue 09:47:00 36.7059 -93.7317 217° Southwest  Level FlightAware Approximate
Tue 09:48:00 36.7310 -93.6931 217° Southwest  Level FlightAware Approximate
Tue 09:49:00 36.7559 -93.6544 217° Southwest  Level FlightAware Approximate
Tue 09:50:00 36.7808 -93.6157 217° Southwest  Level FlightAware Approximate
Tue 09:51:00 36.8058 -93.5770 217° Southwest  Level FlightAware Approximate
Tue 09:52:00 36.8307 -93.5382 217° Southwest  Level FlightAware Approximate
Tue 09:53:00 36.8555 -93.4994 217° Southwest  Level FlightAware Approximate
Tue 09:54:00 36.8804 -93.4606 218° Southwest  Level FlightAware Approximate
Tue 09:55:00 36.9053 -93.4217 218° Southwest  Level FlightAware Approximate
Tue 09:56:00 36.9301 -93.3829 218° Southwest  Level FlightAware Approximate
Tue 09:57:00 36.9550 -93.3440 218° Southwest  Level FlightAware Approximate
Tue 09:58:00 36.9798 -93.3051 218° Southwest  Level FlightAware Approximate
Tue 09:59:00 37.0046 -93.2661 218° Southwest  Level FlightAware Approximate
Tue 10:00:00 37.0294 -93.2271 218° Southwest  Level FlightAware Approximate
Tue 10:01:00 37.0542 -93.1882 218° Southwest  Level FlightAware Approximate
Tue 10:02:00 37.0790 -93.1491 219° Southwest  Level FlightAware Approximate
Tue 10:03:00 37.1037 -93.1101 219° Southwest  Level FlightAware Approximate
Tue 10:04:00 37.1285 -93.0710 219° Southwest  Level FlightAware Approximate
Tue 10:05:00 37.1532 -93.0319 219° Southwest  Level FlightAware Approximate
Tue 10:06:00 37.1780 -92.9928 219° Southwest  Level FlightAware Approximate
Tue 10:07:00 37.2027 -92.9537 219° Southwest  Level FlightAware Approximate
Tue 10:08:00 37.2274 -92.9145 219° Southwest  Level FlightAware Approximate
Tue 10:09:00 37.2520 -92.8753 219° Southwest  Level FlightAware Approximate
Tue 10:10:00 37.2767 -92.8361 219° Southwest  Level FlightAware Approximate
Tue 10:11:00 37.3014 -92.7968 220° Southwest  Level FlightAware Approximate
Tue 10:12:00 37.3260 -92.7575 220° Southwest  Level FlightAware Approximate
Tue 10:13:00 37.3507 -92.7182 220° Southwest  Level FlightAware Approximate
Tue 10:14:00 37.3736 -92.6816 220° Southwest  Level FlightAware Approximate
Tue 10:15:00 37.3965 -92.6449 220° Southwest  Level FlightAware Approximate
Tue 10:16:00 37.4195 -92.6082 220° Southwest  Level FlightAware Approximate
Tue 10:17:00 37.4424 -92.5714 220° Southwest  Level FlightAware Approximate
Tue 10:18:00 37.4653 -92.5347 220° Southwest  Level FlightAware Approximate
Tue 10:19:00 37.4882 -92.4979 220° Southwest  Level FlightAware Approximate
Tue 10:20:00 37.5111 -92.4611 220° Southwest  Level FlightAware Approximate
Tue 10:21:00 37.5340 -92.4243 221° Southwest  Level FlightAware Approximate
Tue 10:22:00 37.5568 -92.3875 221° Southwest  Level FlightAware Approximate
Tue 10:23:00 37.5797 -92.3506 221° Southwest  Level FlightAware Approximate
Tue 10:24:00 37.6025 -92.3137 221° Southwest  Level FlightAware Approximate
Tue 10:25:00 37.6253 -92.2768 221° Southwest  Level FlightAware Approximate
Tue 10:26:00 37.6482 -92.2399 221° Southwest  Level FlightAware Approximate
Tue 10:27:00 37.6710 -92.2029 221° Southwest  Level FlightAware Approximate
Tue 10:28:00 37.6937 -92.1659 221° Southwest  Level FlightAware Approximate
Tue 10:29:00 37.7165 -92.1289 221° Southwest  Level FlightAware Approximate
Tue 10:30:00 37.7393 -92.0919 221° Southwest  Level FlightAware Approximate
Tue 10:31:00 37.7621 -92.0548 221° Southwest  Level FlightAware Approximate
Tue 10:32:00 37.7848 -92.0178 222° Southwest  Level FlightAware Approximate
Tue 10:33:00 37.8075 -91.9807 222° Southwest  Level FlightAware Approximate
Tue 10:34:00 37.8303 -91.9436 222° Southwest  Level FlightAware Approximate
Tue 10:35:00 37.8530 -91.9064 222° Southwest  Level FlightAware Approximate
Tue 10:36:00 37.8757 -91.8693 222° Southwest  Level FlightAware Approximate
Tue 10:37:00 37.8984 -91.8321 222° Southwest  Level FlightAware Approximate
Tue 10:38:00 37.9210 -91.7949 222° Southwest  Level FlightAware Approximate
Tue 10:39:00 37.9437 -91.7576 222° Southwest  Level FlightAware Approximate
Tue 10:40:00 37.9664 -91.7204 222° Southwest  Level FlightAware Approximate
Tue 10:41:00 37.9890 -91.6831 222° Southwest  Level FlightAware Approximate
Tue 10:42:00 38.0116 -91.6458 222° Southwest  Level FlightAware Approximate
Tue 10:43:00 38.0342 -91.6085 222° Southwest  Level FlightAware Approximate
Tue 10:44:00 38.0569 -91.5711 223° Southwest  Level FlightAware Approximate
Tue 10:45:00 38.0794 -91.5338 223° Southwest  Level FlightAware Approximate
Tue 10:46:00 38.1020 -91.4964 223° Southwest  Level FlightAware Approximate
Tue 10:47:00 38.1246 -91.4590 223° Southwest  Level FlightAware Approximate
Tue 10:48:00 38.1472 -91.4215 223° Southwest  Level FlightAware Approximate
Tue 10:49:00 38.1684 -91.3862 223° Southwest  Level FlightAware Approximate
Tue 10:50:00 38.1897 -91.3508 223° Southwest  Level FlightAware Approximate
Tue 10:51:00 38.2110 -91.3154 223° Southwest  Level FlightAware Approximate
Tue 10:52:00 38.2322 -91.2800 223° Southwest  Level FlightAware Approximate
Tue 10:53:00 38.2540 -91.2436 223° Southwest  Level FlightAware Approximate
Tue 10:54:00 38.2758 -91.2072 223° Southwest  Level FlightAware Approximate
Tue 10:55:00 38.2976 -91.1708 223° Southwest  Level FlightAware Approximate
Tue 10:56:00 38.3194 -91.1343 223° Southwest  Level FlightAware Approximate
Tue 10:57:00 38.3411 -91.0978 223° Southwest  Level FlightAware Approximate
Tue 10:58:00 38.3629 -91.0613 224° Southwest  Level FlightAware Approximate
Tue 10:59:00 38.3846 -91.0248 224° Southwest  Level FlightAware Approximate
Tue 11:00:00 38.4063 -90.9883 224° Southwest  Level FlightAware Approximate
Tue 11:01:00 38.4281 -90.9517 224° Southwest  Level FlightAware Approximate
Tue 11:02:00 38.4498 -90.9151 224° Southwest  Level FlightAware Approximate
Tue 11:03:00 38.4715 -90.8785 224° Southwest  Level FlightAware Approximate
Tue 11:04:00 38.4931 -90.8419 224° Southwest  Level FlightAware Approximate
Tue 11:05:00 38.5148 -90.8053 224° Southwest  Level FlightAware Approximate
Tue 11:06:00 38.5365 -90.7686 224° Southwest  Level FlightAware Approximate
Tue 11:07:00 38.5581 -90.7319 224° Southwest  Level FlightAware Approximate
Tue 11:08:00 38.5798 -90.6952 224° Southwest  Level FlightAware Approximate
Tue 11:09:00 38.6014 -90.6584 224° Southwest  Level FlightAware Approximate
Tue 11:10:00 38.6230 -90.6217 224° Southwest  Level FlightAware Approximate
Tue 11:11:00 38.6444 -90.5852 224° Southwest  Level FlightAware Approximate
Tue 11:11:20 32.9253 -97.0306 North 175 323 2.000  Level FAA TRACON SMA TRACON (SMA)
Tue 11:11:40 32.9436 -97.0289 North 201 372 2.500 2.850 Climbing FAA TRACON SMA TRACON (SMA)
Tue 11:12:00 32.9672 -97.0272 356° North 221 409 3.900 3.600 Climbing FAA TRACON SMA TRACON (SMA)
Tue 11:12:20 32.9858 -97.0289 North 220 407 4.900 3.000 Climbing FAA TRACON SMA TRACON (SMA)
Tue 11:12:40 33.0050 -97.0283 North 222 410 5.900 3.450 Climbing FAA TRACON SMA TRACON (SMA)
Tue 11:13:00 33.0289 -97.0272 North 223 414 7.200 2.850 Climbing FAA TRACON SMA TRACON (SMA)
Tue 11:13:20 33.0489 -97.0264 North 228 422 7.800 2.049 Climbing FAA TRACON SMA TRACON (SMA)
Tue 11:13:41 33.0703 -97.0253 16° North 245 454 8.600 2.634 Climbing FAA TRACON SMA TRACON (SMA)
Tue 11:14:01 33.0981 -97.0158 26° Northeast 269 499 9.600 2.923 Climbing FAA TRACON SMA TRACON (SMA)
Tue 11:14:20 33.1194 -97.0036 24° Northeast 277 513 10.500 2.923 Climbing FAA TRACON SMA TRACON (SMA)
Tue 11:14:40 33.1419 -96.9914 24° Northeast 285 528 11.500 3.300 Climbing FAA TRACON SMA TRACON (SMA)
Tue 11:15:00 33.1703 -96.9761 23° Northeast 291 539 12.700 3.300 Climbing FAA TRACON SMA TRACON (SMA)
Tue 11:15:20 33.1936 -96.9642 26° Northeast 294 544 13.700 3.000 Climbing FAA TRACON SMA TRACON (SMA)
Tue 11:15:40 33.2164 -96.9511 25° Northeast 296 549 14.700 3.220 Climbing FAA TRACON SMA TRACON (SMA)
Tue 11:16:01 33.2458 -96.9350 24° Northeast 299 554 15.900 2.927 Climbing FAA TRACON SMA TRACON (SMA)
Tue 11:16:21 33.2692 -96.9228 25° Northeast 300 555 16.700 1.692 Climbing FAA TRACON SMA TRACON (SMA)
Tue 11:16:40 33.2925 -96.9100 26° Northeast 299 554 17.000 462 Climbing FAA TRACON SMA TRACON (SMA)
Tue 11:17:00 33.3244 -96.8917 24° Northeast 324 600 17.000 150 Level FAA TRACON SMA TRACON (SMA)
Tue 11:17:20 33.3522 -96.8767 24° Northeast 351 650 17.100 1.869 Climbing FAA TRACON SMA TRACON (SMA)
Tue 11:18:01 33.4164 -96.8422 24° Northeast 366 678 18.900 2.500 Climbing FAA TRACON SMA TRACON (SMA)
Tue 11:18:20 33.4456 -96.8264 26° Northeast 372 689 19.600 2.100 Climbing FAA TRACON SMA TRACON (SMA)
Tue 11:18:41 33.4744 -96.8097 28° Northeast 376 697 20.300 1.950 Climbing FAA TRACON SMA TRACON (SMA)
Tue 11:19:00 33.5036 -96.7908 28° Northeast 382 708 20.900 2.154 Climbing FAA TRACON SMA TRACON (SMA)
Tue 11:19:20 33.5403 -96.7672 29° Northeast 388 719 21.700 2.250 Climbing FAA TRACON SMA TRACON (SMA)
Tue 11:19:40 33.5700 -96.7475 28° Northeast 393 727 22.400 1.950 Climbing FAA TRACON SMA TRACON (SMA)
Tue 11:20:00 33.6000 -96.7286 28° Northeast 395 732 23.000 1.200 Climbing FAA TRACON SMA TRACON (SMA)
Tue 11:20:20 33.6375 -96.7044 28° Northeast 397 735 23.200 1.500 Climbing FAA TRACON SMA TRACON (SMA)
Tue 11:21:00 33.6981 -96.6661 27° Northeast 400 740 24.500 2.000 Climbing FAA TRACON SMA TRACON (SMA)
Tue 11:21:20 33.7369 -96.6425 29° Northeast 406 752 25.200 1.950 Climbing FAA TRACON SMA TRACON (SMA)
Tue 11:21:40 33.7681 -96.6217 28° Northeast 410 760 25.800 1.902 Climbing FAA TRACON SMA TRACON (SMA)
Tue 11:22:01 33.8069 -96.5964 28° Northeast 414 766 26.500 1.648 Climbing FAA TRACON SMA TRACON (SMA)
Tue 11:23:11 33.9156 -96.5275 27° Northeast 409 758 28.300 1.846 Climbing Fort Worth Center
Tue 11:24:11 34.0194 -96.4636 33° Northeast 409 758 30.500 1.850 Climbing Fort Worth Center
Tue 11:25:11 34.1211 -96.3850 36° Northeast 409 758 32.000 1.150 Climbing Fort Worth Center
Tue 11:26:11 34.2186 -96.3008 34° Northeast 401 742 32.800 500 Climbing Fort Worth Center
Tue 11:27:11 34.3181 -96.2192 34° Northeast 411 761 33.000 100 Climbing Fort Worth Center
Tue 11:28:11 34.4111 -96.1422 34° Northeast 438 811 33.000  Level Fort Worth Center
Tue 11:29:11 34.5125 -96.0603 33° Northeast 443 821 33.000  Level Fort Worth Center
Tue 11:30:11 34.6158 -95.9778 35° Northeast 438 811 33.000  Level Fort Worth Center
Tue 11:31:11 34.7169 -95.8928 35° Northeast 438 811 33.000  Level Fort Worth Center
Tue 11:32:11 34.8183 -95.8050 34° Northeast 438 811 33.000  Level Fort Worth Center
Tue 11:33:11 34.9336 -95.7092 38° Northeast 444 822 33.000  Level Fort Worth Center
Tue 11:34:11 35.0325 -95.6158 38° Northeast 444 822 33.000  Level Fort Worth Center
Tue 11:35:11 35.1292 -95.5225 38° Northeast 444 822 33.000  Level Fort Worth Center
Tue 11:36:11 35.2300 -95.4261 37° Northeast 449 832 33.000  Level Fort Worth Center
Tue 11:37:11 35.3306 -95.3322 36° Northeast 459 850 33.000  Level Fort Worth Center
Tue 11:37:42 35.3836 -95.2847 40° Northeast 457 847 33.000  Level Memphis Center
Tue 11:38:42 35.4706 -95.1956 37° Northeast 457 847 33.000  Level Memphis Center
Tue 11:39:42 35.5700 -95.1019 38° Northeast 457 847 33.000  Level Memphis Center
Tue 11:40:42 35.6717 -95.0028 38° Northeast 457 847 33.000  Level Memphis Center
Tue 11:41:42 35.7733 -94.9061 38° Northeast 457 847 33.000  Level Memphis Center
Tue 11:42:42 35.8750 -94.8067 38° Northeast 457 847 33.000  Level Memphis Center
Tue 11:43:42 35.9742 -94.7122 40° Northeast 457 847 33.000  Level Memphis Center
Tue 11:44:42 36.0714 -94.6119 38° Northeast 452 837 33.000  Level Memphis Center
Tue 11:46:44 36.2858 -94.4006 39° Northeast 466 863 33.000  Level Kansas City Center
Tue 11:47:44 36.3861 -94.2997 38° Northeast 466 863 33.000  Level Kansas City Center
Tue 11:48:44 36.4858 -94.2039 39° Northeast 466 863 33.000  Level Kansas City Center
Tue 11:49:44 36.5858 -94.1025 39° Northeast 466 863 33.000  Level Kansas City Center
Tue 11:50:44 36.6856 -94.0011 38° Northeast 466 863 33.000  Level Kansas City Center
Tue 11:51:44 36.7872 -93.9017 39° Northeast 466 863 33.000  Level Kansas City Center
Tue 11:52:44 36.8869 -93.8022 37° Northeast 466 863 33.000  Level Kansas City Center
Tue 11:53:44 36.9886 -93.7078 38° Northeast 461 855 33.000  Level Kansas City Center
Tue 11:54:44 37.0919 -93.6078 39° Northeast 456 845 33.000  Level Kansas City Center
Tue 11:55:44 37.1872 -93.5103 38° Northeast 456 845 33.000  Level Kansas City Center
Tue 11:56:44 37.2886 -93.4097 42° Northeast 456 845 33.000 -300 Level Kansas City Center
Tue 11:57:44 37.3836 -93.3036 42° Northeast 456 845 32.400 -800 Descending Kansas City Center
Tue 11:58:44 37.4783 -93.1975 43° Northeast 456 845 31.400 -900 Descending Kansas City Center
Tue 11:59:44 37.5606 -93.0992 42° Northeast 450 834 30.600 -900 Descending Kansas City Center
Tue 12:00:44 37.6553 -92.9897 43° Northeast 450 834 29.600 -1.000 Descending Kansas City Center
Tue 12:01:44 37.7456 -92.8831 43° Northeast 450 834 28.600 -1.000 Descending Kansas City Center
Tue 12:02:44 37.8339 -92.7786 42° Northeast 440 814 27.600 -1.050 Descending Kansas City Center
Tue 12:03:44 37.9242 -92.6739 43° Northeast 434 803 26.500 -1.000 Descending Kansas City Center
Tue 12:04:44 38.0100 -92.5714 43° Northeast 434 803 25.600 -1.000 Descending Kansas City Center
Tue 12:05:44 38.0939 -92.4717 44° Northeast 429 795 24.500 -800 Descending Kansas City Center
Tue 12:06:44 38.1756 -92.3717 43° Northeast 418 774 24.000 -250 Descending Kansas City Center
Tue 12:07:44 38.2675 -92.2606 43° Northeast 413 764 24.000 -100 Level Kansas City Center
Tue 12:08:44 38.3489 -92.1628 65° Northeast 408 756 23.800 -400 Descending Kansas City Center
Tue 12:09:44 38.3964 -92.0342 68° East 390 723 23.200 -600 Descending Kansas City Center
Tue 12:10:44 38.4394 -91.9003 70° East 395 732 22.600 -650 Descending Kansas City Center
Tue 12:11:44 38.4761 -91.7717 70° East 390 723 21.900 -1.450 Descending Kansas City Center
Tue 12:12:44 38.5128 -91.6403 71° East 390 723 19.700 -2.000 Descending Kansas City Center
Tue 12:13:44 38.5453 -91.5194 73° East 383 710 17.900 -1.800 Descending Kansas City Center
Tue 12:14:44 38.5753 -91.3961 70° East 371 687 16.100 -1.400 Descending Kansas City Center
Tue 12:15:44 38.6058 -91.2911 79° East 352 652 15.100 -688 Descending Kansas City Center
Tue 12:16:20 38.6261 -91.1569 70° East 340 629 15.000 -107 Descending FAA TRACON SMA TRACON (SMA)
Tue 12:16:40 38.6361 -91.1214 69° East 343 636 15.000  Level FAA TRACON SMA TRACON (SMA)
Tue 12:17:00 38.6467 -91.0861 73° East 347 642 15.000 -308 Level FAA TRACON SMA TRACON (SMA)
Tue 12:17:19 38.6550 -91.0506 72° East 344 637 14.800 -1.579 Descending FAA TRACON SMA TRACON (SMA)
Tue 12:17:38 38.6661 -91.0067 69° East 339 628 14.000 -2.195 Descending FAA TRACON SMA TRACON (SMA)
Tue 12:18:00 38.6764 -90.9717 72° East 338 626 13.300 -2.143 Descending FAA TRACON SMA TRACON (SMA)
Tue 12:18:20 38.6872 -90.9286 79° East 333 616 12.500 -1.692 Descending FAA TRACON SMA TRACON (SMA)
Tue 12:18:39 38.6922 -90.8942 88° East 325 602 12.200 -923 Descending FAA TRACON SMA TRACON (SMA)
Tue 12:18:59 38.6933 -90.8600 86° East 315 583 11.900 -1.050 Descending FAA TRACON SMA TRACON (SMA)
Tue 12:19:19 38.6956 -90.8192 89° East 302 560 11.500 -1.200 Descending FAA TRACON SMA TRACON (SMA)
Tue 12:19:39 38.6961 -90.7881 88° East 289 536 11.100 -1.385 Descending FAA TRACON SMA TRACON (SMA)
Tue 12:19:58 38.6969 -90.7567 86° East 286 529 10.600 -1.800 Descending FAA TRACON SMA TRACON (SMA)
Tue 12:20:19 38.6989 -90.7178 87° East 285 528 9.900 -1.610 Descending FAA TRACON SMA TRACON (SMA)
Tue 12:20:39 38.7003 -90.6872 86° East 282 523 9.500 -1.385 Descending FAA TRACON SMA TRACON (SMA)
Tue 12:20:58 38.7019 -90.6567 88° East 281 520 9.000 -1.800 Descending FAA TRACON SMA TRACON (SMA)
Tue 12:21:19 38.7031 -90.6183 87° East 280 518 8.300 -1.463 Descending FAA TRACON SMA TRACON (SMA)
Tue 12:21:39 38.7044 -90.5881 87° East 278 515 8.000 -462 Descending FAA TRACON SMA TRACON (SMA)
Tue 12:21:58 38.7058 -90.5581 87° East 275 509 8.000  Level FAA TRACON SMA TRACON (SMA)
Tue 12:22:19 38.7072 -90.5206 87° East 274 507 8.000  Level FAA TRACON SMA TRACON (SMA)
Tue 12:22:39 38.7083 -90.4906 89° East 275 509 8.000  Level FAA TRACON SMA TRACON (SMA)
Tue 12:22:59 38.7089 -90.4606 109° East 274 507 8.000  Level FAA TRACON SMA TRACON (SMA)
Tue 12:23:18 38.7011 -90.4317 125° Southeast 283 525 8.000  Level FAA TRACON SMA TRACON (SMA)
Tue 12:23:39 38.6853 -90.4022 120° Southeast 266 492 8.000 -818 Level FAA TRACON SMA TRACON (SMA)
Tue 12:24:02 38.6744 -90.3786 120° Southeast 249 462 7.400 -1.674 Descending FAA TRACON SMA TRACON (SMA)
Tue 12:24:22 38.6619 -90.3506 121° Southeast 238 441 6.800 -1.784 Descending FAA TRACON SMA TRACON (SMA)
Tue 12:24:39 38.6517 -90.3283 121° Southeast 233 431 6.300 -1.784 Descending FAA TRACON SMA TRACON (SMA)
Tue 12:24:59 38.6419 -90.3072 121° Southeast 229 425 5.700 -1.950 Descending FAA TRACON SMA TRACON (SMA)
Tue 12:25:19 38.6294 -90.2803 121° Southeast 228 422 5.000 -1.650 Descending FAA TRACON SMA TRACON (SMA)
Tue 12:25:39 38.6194 -90.2586 119° Southeast 228 422 4.600 -1.350 Descending FAA TRACON SMA TRACON (SMA)
Tue 12:25:59 38.6106 -90.2383 123° Southeast 219 406 4.100 -923 Descending FAA TRACON SMA TRACON (SMA)
Tue 12:26:18 38.5989 -90.2153 105° East 202 373 4.000 -293 Descending FAA TRACON SMA TRACON (SMA)
Tue 12:26:40 38.5950 -90.1972 42° Northeast 183 340 3.900 -146 Descending FAA TRACON SMA TRACON (SMA)
Tue 12:26:59 38.6069 -90.1833 18° North 175 323 3.900 -308 Level FAA TRACON SMA TRACON (SMA)
Tue 12:27:19 38.6197 -90.1781 18° North 162 299 3.700 -600 Descending FAA TRACON SMA TRACON (SMA)

Login

Don't have an account? Register now (free) for customized features, flight alerts, and more!